Time;durP1;ratioP1;P1;durP2;ratioP2;P2;SDS_P1;SDS_P2;PMS_P1;PMS_P2;Temp;Humidity;BMP_temperature;BMP_pressure;BME280_temperature;BME280_humidity;BME280_pressure;Samples;Min_cycle;Max_cycle;Signal;HPM_P1;HPM_P2
2021/01/08 00:00:55;;;;;;;36.60;33.30;;;;;;;;;;5093818;28;20204;-82
2021/01/08 00:03:22;;;;;;;36.30;32.90;;;;;;;;;;5095113;28;20191;-82
2021/01/08 00:05:50;;;;;;;37.42;33.53;;;;;;;;;;5094801;28;20718;-82
2021/01/08 00:08:17;;;;;;;38.15;34.20;;;;;;;;;;5094971;28;20324;-82
2021/01/08 00:10:44;;;;;;;43.22;36.70;;;;;;;;;;5094893;28;20190;-83
2021/01/08 00:13:11;;;;;;;36.47;33.05;;;;;;;;;;5094679;28;20187;-82
2021/01/08 00:15:38;;;;;;;38.70;34.80;;;;;;;;;;5095086;28;20647;-82
2021/01/08 00:18:04;;;;;;;39.17;35.28;;;;;;;;;;5094797;28;20261;-82
2021/01/08 00:20:31;;;;;;;39.10;35.03;;;;;;;;;;5094569;28;20191;-82
2021/01/08 00:22:59;;;;;;;38.80;34.70;;;;;;;;;;5094716;28;20260;-82
2021/01/08 00:25:27;;;;;;;36.30;32.92;;;;;;;;;;5094228;28;20268;-82
2021/01/08 00:27:54;;;;;;;36.90;33.40;;;;;;;;;;5094482;28;20187;-82
2021/01/08 00:30:21;;;;;;;37.17;33.72;;;;;;;;;;5094723;28;20275;-82
2021/01/08 00:32:48;;;;;;;39.53;35.55;;;;;;;;;;5093609;28;20199;-82
2021/01/08 00:35:15;;;;;;;37.72;34.13;;;;;;;;;;5094185;28;20216;-83
2021/01/08 00:37:42;;;;;;;37.88;34.17;;;;;;;;;;5093223;28;20233;-82
2021/01/08 00:40:13;;;;;;;36.40;33.00;;;;;;;;;;5093989;28;20187;-83
2021/01/08 00:42:40;;;;;;;36.78;33.17;;;;;;;;;;5094245;28;20203;-82
2021/01/08 00:45:07;;;;;;;36.65;33.25;;;;;;;;;;5094584;28;20191;-83
2021/01/08 00:47:34;;;;;;;38.33;34.53;;;;;;;;;;5094113;28;20191;-82
2021/01/08 00:50:01;;;;;;;36.28;32.90;;;;;;;;;;5093954;28;20661;-82
2021/01/08 00:52:28;;;;;;;37.45;34.05;;;;;;;;;;5094045;28;20265;-82
2021/01/08 00:54:55;;;;;;;36.35;33.00;;;;;;;;;;5094082;28;20215;-83
2021/01/08 00:57:23;;;;;;;38.25;34.15;;;;;;;;;;5093860;28;20218;-82
2021/01/08 00:59:52;;;;;;;39.03;35.17;;;;;;;;;;5094009;28;20197;-82
2021/01/08 01:02:18;;;;;;;39.25;35.38;;;;;;;;;;5094175;28;20199;-82
2021/01/08 01:04:45;;;;;;;39.28;35.55;;;;;;;;;;5094152;28;20263;-82
2021/01/08 01:07:12;;;;;;;39.38;35.55;;;;;;;;;;5093954;28;20194;-83
2021/01/08 01:09:39;;;;;;;39.97;36.03;;;;;;;;;;5094107;28;20614;-83
2021/01/08 01:12:06;;;;;;;37.47;33.83;;;;;;;;;;5093854;28;20191;-82
2021/01/08 01:14:34;;;;;;;37.83;34.35;;;;;;;;;;5093745;28;20187;-82
2021/01/08 01:17:03;;;;;;;36.85;33.25;;;;;;;;;;5093642;28;20222;-82
2021/01/08 01:19:30;;;;;;;37.10;33.63;;;;;;;;;;5093618;28;20210;-82
2021/01/08 01:21:57;;;;;;;39.15;35.08;;;;;;;;;;5093798;28;20199;-82
2021/01/08 01:24:24;;;;;;;37.88;34.08;;;;;;;;;;5093935;28;20188;-83
2021/01/08 01:26:54;;;;;;;39.00;34.83;;;;;;;;;;5076088;28;20207;-82
2021/01/08 01:29:21;;;;;;;38.10;33.75;;;;;;;;;;5094043;28;20269;-82
2021/01/08 01:31:48;;;;;;;37.10;33.38;;;;;;;;;;5093774;28;20195;-83
2021/01/08 01:34:15;;;;;;;36.63;32.90;;;;;;;;;;5093923;28;20223;-83
2021/01/08 01:36:42;;;;;;;49.67;35.83;;;;;;;;;;5093622;28;20218;-82
2021/01/08 01:39:09;;;;;;;43.25;33.90;;;;;;;;;;5093930;28;20194;-83
2021/01/08 01:41:36;;;;;;;37.60;33.80;;;;;;;;;;5093759;28;20191;-82
2021/01/08 01:44:03;;;;;;;38.28;34.53;;;;;;;;;;5092759;28;20200;-83
2021/01/08 01:46:30;;;;;;;39.70;35.60;;;;;;;;;;5093396;28;20202;-82
2021/01/08 01:48:58;;;;;;;37.85;33.95;;;;;;;;;;5093399;28;20188;-83
2021/01/08 01:51:25;;;;;;;35.78;32.28;;;;;;;;;;5095630;28;20203;-83
2021/01/08 01:53:53;;;;;;;37.38;33.50;;;;;;;;;;5097577;28;20714;-82
2021/01/08 01:56:19;;;;;;;38.85;34.95;;;;;;;;;;5097638;28;20191;-82
2021/01/08 01:58:46;;;;;;;38.15;34.22;;;;;;;;;;5097731;28;20191;-82
2021/01/08 02:01:13;;;;;;;40.25;33.80;;;;;;;;;;5096522;28;20203;-83
2021/01/08 02:03:42;;;;;;;38.92;34.78;;;;;;;;;;5097426;28;20656;-82
2021/01/08 02:06:12;;;;;;;44.25;36.38;;;;;;;;;;5096230;28;20198;-82
2021/01/08 02:08:41;;;;;;;39.70;35.53;;;;;;;;;;5096229;28;20190;-82
2021/01/08 02:11:10;;;;;;;38.70;34.75;;;;;;;;;;5097188;28;20260;-82
2021/01/08 02:13:40;;;;;;;38.42;34.30;;;;;;;;;;5095764;28;20199;-82
2021/01/08 02:16:08;;;;;;;41.25;35.45;;;;;;;;;;5097291;28;20192;-83
2021/01/08 02:18:35;;;;;;;40.17;35.72;;;;;;;;;;5097238;28;20219;-82
2021/01/08 02:21:04;;;;;;;41.95;35.97;;;;;;;;;;5095829;28;20200;-83
2021/01/08 02:23:36;;;;;;;44.75;35.95;;;;;;;;;;5096944;28;20187;-83
2021/01/08 02:26:04;;;;;;;40.13;35.83;;;;;;;;;;5096880;28;20230;-83
2021/01/08 02:28:31;;;;;;;40.15;35.47;;;;;;;;;;5097184;28;20240;-82
2021/01/08 02:30:58;;;;;;;42.92;36.35;;;;;;;;;;5095864;28;20198;-82
2021/01/08 02:33:25;;;;;;;42.75;35.45;;;;;;;;;;5097184;28;20187;-83
2021/01/08 02:35:52;;;;;;;40.38;36.03;;;;;;;;;;5095539;28;20310;-82
2021/01/08 02:38:20;;;;;;;43.33;35.20;;;;;;;;;;5095727;28;20217;-82
2021/01/08 02:40:48;;;;;;;48.72;38.20;;;;;;;;;;5096787;28;20192;-83
2021/01/08 02:43:19;;;;;;;47.55;37.45;;;;;;;;;;5096713;28;20202;-82
2021/01/08 02:45:46;;;;;;;42.10;37.60;;;;;;;;;;5096909;28;20183;-82
2021/01/08 02:48:13;;;;;;;44.38;35.30;;;;;;;;;;5096436;28;20187;-82
2021/01/08 02:50:40;;;;;;;39.88;34.63;;;;;;;;;;5096220;28;20655;-81
2021/01/08 02:53:09;;;;;;;40.15;35.83;;;;;;;;;;5096779;28;20195;-82
2021/01/08 02:55:36;;;;;;;45.17;37.30;;;;;;;;;;5096374;28;20665;-83
2021/01/08 02:58:04;;;;;;;44.72;38.50;;;;;;;;;;5097053;28;20222;-83
2021/01/08 03:00:33;;;;;;;50.03;39.13;;;;;;;;;;5097163;28;20191;-82
2021/01/08 03:03:01;;;;;;;44.03;37.60;;;;;;;;;;5095564;28;20217;-82
2021/01/08 03:05:29;;;;;;;46.58;39.72;;;;;;;;;;5095255;28;20277;-82
2021/01/08 03:07:56;;;;;;;41.67;37.20;;;;;;;;;;5096171;28;20332;-83
2021/01/08 03:10:24;;;;;;;44.35;37.47;;;;;;;;;;5096417;28;20200;-83
2021/01/08 03:12:54;;;;;;;43.92;35.88;;;;;;;;;;5096297;28;20186;-83
2021/01/08 03:15:21;;;;;;;41.40;35.78;;;;;;;;;;5096237;28;20198;-83
2021/01/08 03:17:49;;;;;;;54.38;39.63;;;;;;;;;;5095139;28;20238;-82
2021/01/08 03:20:16;;;;;;;39.83;35.47;;;;;;;;;;5095766;28;20209;-83
2021/01/08 03:22:43;;;;;;;41.92;35.95;;;;;;;;;;5094786;28;20183;-83
2021/01/08 03:25:11;;;;;;;43.78;37.65;;;;;;;;;;5095873;28;20276;-83
2021/01/08 03:27:37;;;;;;;39.17;34.72;;;;;;;;;;5095777;28;20192;-83
2021/01/08 03:30:05;;;;;;;38.55;34.40;;;;;;;;;;5096204;28;20528;-82
2021/01/08 03:32:32;;;;;;;42.63;36.03;;;;;;;;;;5095755;28;20196;-83
2021/01/08 03:35:00;;;;;;;38.67;34.85;;;;;;;;;;5095573;28;20218;-83
2021/01/08 03:37:27;;;;;;;40.28;36.17;;;;;;;;;;5094506;28;20245;-83
2021/01/08 03:39:54;;;;;;;39.03;34.90;;;;;;;;;;5095796;28;20198;-83
2021/01/08 03:42:21;;;;;;;38.03;34.17;;;;;;;;;;5095769;28;20195;-83
2021/01/08 03:44:48;;;;;;;38.85;34.40;;;;;;;;;;5095355;28;20555;-83
2021/01/08 03:47:15;;;;;;;37.83;33.92;;;;;;;;;;5095666;28;20248;-84
2021/01/08 03:49:42;;;;;;;41.78;35.67;;;;;;;;;;5095210;28;20188;-83
2021/01/08 03:52:10;;;;;;;40.78;36.47;;;;;;;;;;5095303;28;20194;-83
2021/01/08 03:54:37;;;;;;;39.03;35.10;;;;;;;;;;5094996;28;20188;-83
2021/01/08 03:57:04;;;;;;;40.45;36.25;;;;;;;;;;5095634;28;20214;-83
2021/01/08 03:59:31;;;;;;;39.63;34.25;;;;;;;;;;5095184;28;20191;-83
2021/01/08 04:01:58;;;;;;;40.00;35.05;;;;;;;;;;5094922;28;20194;-83
2021/01/08 04:04:25;;;;;;;39.20;35.10;;;;;;;;;;5095212;28;20648;-83
2021/01/08 04:06:52;;;;;;;38.63;34.65;;;;;;;;;;5095208;28;20203;-83
2021/01/08 04:09:20;;;;;;;37.80;34.08;;;;;;;;;;5095407;28;20185;-83
2021/01/08 04:11:47;;;;;;;38.22;34.22;;;;;;;;;;5095235;28;20260;-83
2021/01/08 04:14:14;;;;;;;38.58;34.65;;;;;;;;;;5093860;28;20187;-83
2021/01/08 04:16:41;;;;;;;39.95;35.47;;;;;;;;;;5095108;28;20527;-83
2021/01/08 04:19:08;;;;;;;37.15;33.40;;;;;;;;;;5095077;28;20183;-83
2021/01/08 04:21:35;;;;;;;39.72;35.10;;;;;;;;;;5094873;28;20241;-83
2021/01/08 04:24:02;;;;;;;37.65;33.65;;;;;;;;;;5094936;28;20194;-83
2021/01/08 04:26:30;;;;;;;37.08;33.28;;;;;;;;;;5093347;28;20250;-83
2021/01/08 04:28:57;;;;;;;34.85;31.55;;;;;;;;;;5094952;28;20188;-82
2021/01/08 04:31:24;;;;;;;36.97;33.03;;;;;;;;;;5095083;28;20199;-83
2021/01/08 04:33:51;;;;;;;35.88;32.53;;;;;;;;;;5094428;28;20637;-83
2021/01/08 04:36:18;;;;;;;35.30;32.00;;;;;;;;;;5093397;28;20644;-83
2021/01/08 04:38:45;;;;;;;36.33;33.22;;;;;;;;;;5094403;28;20237;-83
2021/01/08 04:41:13;;;;;;;37.15;33.42;;;;;;;;;;5094405;28;20230;-83
2021/01/08 04:43:41;;;;;;;35.53;32.05;;;;;;;;;;5094540;28;20657;-83
2021/01/08 04:46:10;;;;;;;34.80;31.52;;;;;;;;;;5093253;28;20207;-83
2021/01/08 04:48:37;;;;;;;33.55;30.42;;;;;;;;;;5094474;28;20187;-83
2021/01/08 04:51:05;;;;;;;32.92;30.00;;;;;;;;;;5094362;28;20213;-82
2021/01/08 04:53:32;;;;;;;52.28;32.80;;;;;;;;;;5094453;28;20187;-83
2021/01/08 04:56:01;;;;;;;34.38;31.25;;;;;;;;;;5094427;28;20191;-83
2021/01/08 04:58:30;;;;;;;33.95;30.85;;;;;;;;;;5094000;28;20569;-83
2021/01/08 05:00:57;;;;;;;32.35;29.58;;;;;;;;;;5094263;28;20187;-83
2021/01/08 05:03:24;;;;;;;33.72;30.52;;;;;;;;;;5093892;28;20194;-83
2021/01/08 05:05:51;;;;;;;32.22;29.15;;;;;;;;;;5094485;28;20198;-83
2021/01/08 05:08:18;;;;;;;32.13;29.10;;;;;;;;;;5094129;28;20195;-83
2021/01/08 05:10:45;;;;;;;32.35;29.25;;;;;;;;;;5093779;28;20187;-83
2021/01/08 05:13:13;;;;;;;32.30;29.60;;;;;;;;;;5094305;28;20204;-83
2021/01/08 05:15:40;;;;;;;34.00;31.00;;;;;;;;;;5093076;28;20202;-83
2021/01/08 05:18:08;;;;;;;33.83;31.02;;;;;;;;;;5093664;28;20250;-82
2021/01/08 05:20:37;;;;;;;32.25;29.35;;;;;;;;;;5093695;28;20190;-82
2021/01/08 05:23:05;;;;;;;33.15;30.05;;;;;;;;;;5094080;28;20504;-83
2021/01/08 05:25:32;;;;;;;31.88;28.98;;;;;;;;;;5092239;28;20314;-83
2021/01/08 05:28:00;;;;;;;30.48;27.98;;;;;;;;;;5094395;28;20502;-83
2021/01/08 05:30:27;;;;;;;31.20;28.70;;;;;;;;;;5093578;28;20195;-83
2021/01/08 05:32:58;;;;;;;32.28;29.13;;;;;;;;;;5093858;28;20201;-82
2021/01/08 05:35:26;;;;;;;32.85;29.85;;;;;;;;;;5093569;28;20272;-83
2021/01/08 05:37:54;;;;;;;32.83;29.70;;;;;;;;;;5092379;28;20251;-83
2021/01/08 05:40:26;;;;;;;31.00;28.20;;;;;;;;;;5093537;28;20230;-83
2021/01/08 05:42:56;;;;;;;32.40;29.50;;;;;;;;;;5092942;28;20585;-83
2021/01/08 05:45:23;;;;;;;33.33;30.30;;;;;;;;;;5093441;28;20197;-83
2021/01/08 05:47:54;;;;;;;34.55;31.30;;;;;;;;;;5093485;28;20637;-82
2021/01/08 05:50:22;;;;;;;32.00;29.17;;;;;;;;;;5093359;28;20549;-83
2021/01/08 05:52:54;;;;;;;33.30;30.35;;;;;;;;;;5075788;28;20277;-83
2021/01/08 05:55:21;;;;;;;35.38;32.15;;;;;;;;;;5093757;28;20500;-83
2021/01/08 05:57:50;;;;;;;35.70;32.20;;;;;;;;;;5093343;28;20207;-82
2021/01/08 06:00:19;;;;;;;36.03;32.67;;;;;;;;;;5093511;28;20553;-82
2021/01/08 06:02:47;;;;;;;34.15;31.05;;;;;;;;;;5093188;28;20202;-83
2021/01/08 06:05:15;;;;;;;33.42;30.23;;;;;;;;;;5093408;28;20664;-83
2021/01/08 06:07:43;;;;;;;34.53;31.42;;;;;;;;;;5093326;28;20664;-83
2021/01/08 06:10:14;;;;;;;32.63;29.52;;;;;;;;;;5093674;28;20543;-84
2021/01/08 06:12:41;;;;;;;35.58;32.17;;;;;;;;;;5093523;28;20270;-83
2021/01/08 06:15:11;;;;;;;33.45;30.40;;;;;;;;;;5093631;28;20546;-83
2021/01/08 06:17:39;;;;;;;32.03;29.13;;;;;;;;;;5093334;28;20216;-83
2021/01/08 06:20:06;;;;;;;34.15;31.00;;;;;;;;;;5091952;28;20611;-83
2021/01/08 06:22:37;;;;;;;34.20;31.00;;;;;;;;;;5093488;28;20194;-82
2021/01/08 06:25:05;;;;;;;35.10;31.65;;;;;;;;;;5093263;28;20641;-83
2021/01/08 06:27:34;;;;;;;33.10;30.00;;;;;;;;;;5093349;28;20194;-83
2021/01/08 06:30:02;;;;;;;35.63;32.13;;;;;;;;;;5093295;28;20191;-83
2021/01/08 06:32:30;;;;;;;34.67;31.27;;;;;;;;;;5093382;28;20260;-83
2021/01/08 06:35:02;;;;;;;34.03;30.55;;;;;;;;;;5093180;28;20222;-83
2021/01/08 06:37:33;;;;;;;35.08;31.67;;;;;;;;;;5094501;28;20219;-83
2021/01/08 06:40:01;;;;;;;34.70;31.25;;;;;;;;;;5097705;28;20237;-83
2021/01/08 06:42:29;;;;;;;35.47;32.10;;;;;;;;;;5097150;28;20196;-83
2021/01/08 06:44:57;;;;;;;35.25;32.05;;;;;;;;;;5097041;28;20187;-83
2021/01/08 06:47:25;;;;;;;33.70;30.42;;;;;;;;;;5097925;28;20544;-83
2021/01/08 06:49:52;;;;;;;33.90;30.80;;;;;;;;;;5097124;28;20191;-83
2021/01/08 06:52:19;;;;;;;33.10;29.90;;;;;;;;;;5097047;28;20194;-83
2021/01/08 06:54:53;;;;;;;33.65;30.67;;;;;;;;;;5095897;28;20199;-83
2021/01/08 06:57:21;;;;;;;33.78;30.58;;;;;;;;;;5097019;28;20215;-84
2021/01/08 06:59:54;;;;;;;33.72;30.63;;;;;;;;;;5096802;28;20219;-83
2021/01/08 07:02:23;;;;;;;32.53;29.52;;;;;;;;;;5096844;28;20621;-82
2021/01/08 07:04:50;;;;;;;34.55;31.35;;;;;;;;;;5095242;28;20651;-83
2021/01/08 07:07:21;;;;;;;33.90;30.45;;;;;;;;;;5096792;28;20198;-83
2021/01/08 07:09:49;;;;;;;33.55;30.42;;;;;;;;;;5096136;28;20187;-82
2021/01/08 07:12:15;;;;;;;33.38;30.27;;;;;;;;;;5096564;28;20535;-83
2021/01/08 07:14:42;;;;;;;34.28;31.17;;;;;;;;;;5096307;28;20590;-83
2021/01/08 07:17:12;;;;;;;34.55;31.45;;;;;;;;;;5094825;28;20206;-83
2021/01/08 07:19:41;;;;;;;35.67;32.38;;;;;;;;;;5094753;28;20203;-83
2021/01/08 07:22:08;;;;;;;34.67;31.42;;;;;;;;;;5095791;28;20195;-83
2021/01/08 07:24:36;;;;;;;32.58;29.52;;;;;;;;;;5094799;28;20580;-84
2021/01/08 07:27:19;;;;;;;31.38;28.55;;;;;;;;;;5096427;28;20195;-83
2021/01/08 07:29:50;;;;;;;32.20;29.25;;;;;;;;;;5096409;28;20210;-82
2021/01/08 07:32:19;;;;;;;31.48;28.60;;;;;;;;;;5096065;28;20519;-83
2021/01/08 07:34:47;;;;;;;35.17;31.50;;;;;;;;;;5096089;28;20247;-83
2021/01/08 07:37:14;;;;;;;32.25;29.23;;;;;;;;;;5096680;28;20187;-86
2021/01/08 07:39:42;;;;;;;32.10;29.30;;;;;;;;;;5096306;28;20225;-83
2021/01/08 07:42:28;;;;;;;33.53;30.52;;;;;;;;;;5095427;28;20618;-87
2021/01/08 07:44:54;;;;;;;32.63;29.60;;;;;;;;;;5096181;28;20190;-88
2021/01/08 07:47:22;;;;;;;32.65;29.52;;;;;;;;;;5095480;28;20187;-81
2021/01/08 07:50:03;;;;;;;31.90;29.10;;;;;;;;;;5095550;28;20187;-81
2021/01/08 07:52:38;;;;;;;33.35;30.35;;;;;;;;;;5095603;28;20519;-80
2021/01/08 07:55:05;;;;;;;33.10;30.30;;;;;;;;;;5095612;28;20186;-78
2021/01/08 07:57:32;;;;;;;33.53;30.33;;;;;;;;;;5095161;28;20217;-79
2021/01/08 07:59:59;;;;;;;31.13;28.27;;;;;;;;;;5094036;28;20637;-79
2021/01/08 08:02:34;;;;;;;32.17;29.38;;;;;;;;;;5095373;28;20194;-78
2021/01/08 08:05:06;;;;;;;31.30;28.60;;;;;;;;;;5095086;28;20201;-78
2021/01/08 08:07:36;;;;;;;31.33;28.58;;;;;;;;;;5096146;28;20550;-85
2021/01/08 08:10:04;;;;;;;32.03;29.23;;;;;;;;;;5094902;28;20678;-77
2021/01/08 08:12:31;;;;;;;32.53;29.48;;;;;;;;;;5095208;28;20186;-77
2021/01/08 08:15:00;;;;;;;31.08;28.40;;;;;;;;;;5095014;28;20637;-78
2021/01/08 08:17:27;;;;;;;30.75;28.13;;;;;;;;;;5094906;28;20573;-76
2021/01/08 08:19:56;;;;;;;33.00;30.25;;;;;;;;;;5094733;28;20190;-78
2021/01/08 08:22:38;;;;;;;32.58;29.30;;;;;;;;;;5093519;28;20558;-78
2021/01/08 08:25:19;;;;;;;31.08;28.52;;;;;;;;;;5094664;28;20226;-78
2021/01/08 08:27:52;;;;;;;31.38;28.55;;;;;;;;;;5095001;28;20194;-78
2021/01/08 08:30:20;;;;;;;33.97;30.70;;;;;;;;;;5094617;28;20664;-78
2021/01/08 08:32:47;;;;;;;31.40;28.65;;;;;;;;;;5094209;28;20648;-78
2021/01/08 08:35:14;;;;;;;35.47;32.20;;;;;;;;;;5094108;28;20210;-78
2021/01/08 08:37:56;;;;;;;33.50;30.63;;;;;;;;;;5094344;28;20756;-78
2021/01/08 08:40:24;;;;;;;31.60;28.85;;;;;;;;;;5089981;28;20209;-78
2021/01/08 08:42:56;;;;;;;31.35;28.75;;;;;;;;;;5094656;28;20244;-77
2021/01/08 08:45:24;;;;;;;30.75;28.08;;;;;;;;;;5094348;28;20186;-78
2021/01/08 08:47:52;;;;;;;29.45;27.15;;;;;;;;;;5094246;28;20191;-78
2021/01/08 08:50:20;;;;;;;28.35;26.13;;;;;;;;;;5092564;28;20282;-78
2021/01/08 08:52:47;;;;;;;30.42;27.92;;;;;;;;;;5092376;28;20675;-78
2021/01/08 08:55:27;;;;;;;30.02;27.38;;;;;;;;;;5093921;28;20188;-78
2021/01/08 08:58:02;;;;;;;30.17;27.60;;;;;;;;;;5093975;28;20302;-78
2021/01/08 09:00:29;;;;;;;30.70;28.08;;;;;;;;;;5093324;28;20190;-78
2021/01/08 09:02:56;;;;;;;31.35;28.67;;;;;;;;;;5093311;28;20256;-79
2021/01/08 09:05:30;;;;;;;31.45;28.90;;;;;;;;;;5094012;28;20702;-78
2021/01/08 09:08:00;;;;;;;32.30;29.73;;;;;;;;;;5094239;28;20192;-82
2021/01/08 09:10:29;;;;;;;30.42;28.00;;;;;;;;;;5094182;28;20233;-82
2021/01/08 09:13:01;;;;;;;30.52;28.02;;;;;;;;;;5093918;28;20559;-78
2021/01/08 09:15:31;;;;;;;30.55;28.02;;;;;;;;;;5093819;28;20198;-80
2021/01/08 09:18:03;;;;;;;29.90;27.30;;;;;;;;;;5094112;28;20215;-78
2021/01/08 09:20:33;;;;;;;29.58;27.27;;;;;;;;;;5075994;28;20563;-78
2021/01/08 09:23:01;;;;;;;28.70;26.40;;;;;;;;;;5094383;28;20215;-78
2021/01/08 09:25:28;;;;;;;30.17;27.75;;;;;;;;;;5093838;28;20696;-78
2021/01/08 09:27:55;;;;;;;29.02;26.75;;;;;;;;;;5094019;28;20245;-78
2021/01/08 09:30:23;;;;;;;28.50;26.40;;;;;;;;;;5093768;28;20191;-78
2021/01/08 09:32:50;;;;;;;29.10;26.88;;;;;;;;;;5093897;28;20236;-78
2021/01/08 09:35:17;;;;;;;28.85;26.70;;;;;;;;;;5093698;28;20673;-79
2021/01/08 09:37:49;;;;;;;29.13;26.83;;;;;;;;;;5093900;28;20219;-78
2021/01/08 09:40:17;;;;;;;30.63;28.23;;;;;;;;;;5093577;28;20183;-78
2021/01/08 09:42:45;;;;;;;29.25;26.85;;;;;;;;;;5093185;28;20206;-78
2021/01/08 09:45:21;;;;;;;28.67;26.58;;;;;;;;;;5093654;28;20195;-79
2021/01/08 09:47:49;;;;;;;26.45;24.55;;;;;;;;;;5093315;28;20191;-78
2021/01/08 09:50:27;;;;;;;28.48;26.30;;;;;;;;;;5093630;28;20550;-78
2021/01/08 09:52:57;;;;;;;26.13;24.33;;;;;;;;;;5092184;28;20198;-78
2021/01/08 09:55:24;;;;;;;26.75;24.85;;;;;;;;;;5093561;28;20231;-78
2021/01/08 09:57:59;;;;;;;26.10;24.25;;;;;;;;;;5093696;28;20668;-79
2021/01/08 10:00:30;;;;;;;26.77;24.92;;;;;;;;;;5093382;28;20225;-78
2021/01/08 10:02:57;;;;;;;25.98;24.33;;;;;;;;;;5093487;28;20183;-78
2021/01/08 10:05:27;;;;;;;25.55;23.88;;;;;;;;;;5093791;28;20290;-78
2021/01/08 10:07:53;;;;;;;26.50;24.75;;;;;;;;;;5092577;28;20645;-83
2021/01/08 10:10:35;;;;;;;26.17;24.35;;;;;;;;;;5092765;28;20542;-82
2021/01/08 10:13:03;;;;;;;31.35;28.40;;;;;;;;;;5093229;28;20218;-79
2021/01/08 10:15:34;;;;;;;27.20;25.10;;;;;;;;;;5097341;28;20184;-78
2021/01/08 10:18:08;;;;;;;27.02;25.02;;;;;;;;;;5096050;28;20227;-78
2021/01/08 10:20:42;;;;;;;27.48;25.58;;;;;;;;;;5095786;28;20692;-78
2021/01/08 10:23:11;;;;;;;27.90;25.85;;;;;;;;;;5097105;28;20547;-79
2021/01/08 10:25:39;;;;;;;28.10;26.00;;;;;;;;;;5096927;28;20230;-78
2021/01/08 10:28:10;;;;;;;29.88;27.42;;;;;;;;;;5097279;28;20645;-78
2021/01/08 10:30:37;;;;;;;27.55;25.50;;;;;;;;;;5097301;28;20542;-77
2021/01/08 10:33:04;;;;;;;27.65;25.55;;;;;;;;;;5097029;28;20188;-76
2021/01/08 10:35:31;;;;;;;27.75;25.75;;;;;;;;;;5095861;28;20187;-77
2021/01/08 10:37:59;;;;;;;28.20;26.10;;;;;;;;;;5097015;28;20547;-77
2021/01/08 10:40:25;;;;;;;29.15;26.85;;;;;;;;;;5097005;28;20211;-78
2021/01/08 10:42:52;;;;;;;28.98;26.70;;;;;;;;;;5095503;28;20553;-78
2021/01/08 10:45:19;;;;;;;29.33;27.13;;;;;;;;;;5096507;28;20196;-78
2021/01/08 10:47:47;;;;;;;29.27;27.02;;;;;;;;;;5095633;28;20232;-77
2021/01/08 10:50:14;;;;;;;31.08;28.67;;;;;;;;;;5095220;28;20656;-77
2021/01/08 10:52:43;;;;;;;30.65;28.33;;;;;;;;;;5095353;28;20200;-78
2021/01/08 10:55:11;;;;;;;29.27;27.08;;;;;;;;;;5096831;28;20191;-78
2021/01/08 10:57:38;;;;;;;30.33;27.90;;;;;;;;;;5096438;28;20241;-78
2021/01/08 11:00:07;;;;;;;31.25;28.65;;;;;;;;;;5095171;28;20200;-77
2021/01/08 11:02:34;;;;;;;31.38;28.45;;;;;;;;;;5095909;28;20203;-78
2021/01/08 11:05:01;;;;;;;30.92;28.42;;;;;;;;;;5096375;28;20207;-77
2021/01/08 11:07:29;;;;;;;32.20;29.45;;;;;;;;;;5096595;28;20187;-77
2021/01/08 11:09:55;;;;;;;31.20;28.65;;;;;;;;;;5096274;28;20214;-77
2021/01/08 11:12:23;;;;;;;31.83;29.23;;;;;;;;;;5095957;28;20202;-77
2021/01/08 11:14:50;;;;;;;31.25;28.67;;;;;;;;;;5096021;28;20207;-78
2021/01/08 11:17:17;;;;;;;32.10;29.05;;;;;;;;;;5096063;28;20194;-77
2021/01/08 11:19:44;;;;;;;32.53;29.63;;;;;;;;;;5094839;28;20229;-77
2021/01/08 11:22:11;;;;;;;32.17;29.15;;;;;;;;;;5095729;28;20676;-78
2021/01/08 11:24:38;;;;;;;32.05;29.23;;;;;;;;;;5095796;28;20642;-78
2021/01/08 11:27:05;;;;;;;33.13;30.23;;;;;;;;;;5095769;28;20653;-79
2021/01/08 11:29:33;;;;;;;33.20;30.40;;;;;;;;;;5096164;28;20196;-79
2021/01/08 11:32:00;;;;;;;34.13;30.92;;;;;;;;;;5095729;28;20187;-79
2021/01/08 11:34:28;;;;;;;30.65;28.00;;;;;;;;;;5095930;28;20638;-78
2021/01/08 11:36:56;;;;;;;32.17;29.27;;;;;;;;;;5095708;28;20183;-81
2021/01/08 11:39:24;;;;;;;34.63;31.67;;;;;;;;;;5095419;28;20227;-81
2021/01/08 11:41:54;;;;;;;32.28;29.65;;;;;;;;;;5094651;28;20199;-80
2021/01/08 11:44:22;;;;;;;33.30;30.45;;;;;;;;;;5094491;28;20256;-81
2021/01/08 11:46:50;;;;;;;33.83;31.02;;;;;;;;;;5095319;28;20210;-79
2021/01/08 11:49:16;;;;;;;32.00;29.40;;;;;;;;;;5095408;28;20214;-79
2021/01/08 11:51:44;;;;;;;32.88;30.08;;;;;;;;;;5095504;28;20187;-80
2021/01/08 11:54:11;;;;;;;33.70;30.90;;;;;;;;;;5095391;28;20652;-80
2021/01/08 11:56:38;;;;;;;34.28;31.15;;;;;;;;;;5095214;28;20195;-79
2021/01/08 11:59:05;;;;;;;35.58;32.20;;;;;;;;;;5095465;28;20265;-79
2021/01/08 12:01:32;;;;;;;34.60;31.25;;;;;;;;;;5095305;28;20198;-79
2021/01/08 12:04:00;;;;;;;33.42;30.45;;;;;;;;;;5095408;28;20194;-80
2021/01/08 12:06:28;;;;;;;33.20;30.25;;;;;;;;;;5095365;28;20203;-80
2021/01/08 12:08:56;;;;;;;33.72;30.52;;;;;;;;;;5095169;28;20188;-80
2021/01/08 12:11:23;;;;;;;33.50;30.40;;;;;;;;;;5094066;28;20698;-80
2021/01/08 12:13:50;;;;;;;34.85;31.77;;;;;;;;;;5094121;28;20645;-80
2021/01/08 12:16:24;;;;;;;35.45;32.15;;;;;;;;;;5094949;28;20240;-80
2021/01/08 12:18:51;;;;;;;35.63;32.33;;;;;;;;;;5095193;28;20254;-80
2021/01/08 12:21:18;;;;;;;38.00;34.35;;;;;;;;;;5094586;28;20632;-80
2021/01/08 12:23:46;;;;;;;36.60;33.25;;;;;;;;;;5094810;28;20192;-80
2021/01/08 12:26:14;;;;;;;34.50;31.40;;;;;;;;;;5093391;28;20325;-80
2021/01/08 12:28:41;;;;;;;34.17;30.90;;;;;;;;;;5094568;28;20672;-80
2021/01/08 12:31:08;;;;;;;34.35;31.35;;;;;;;;;;5093695;28;20211;-80
2021/01/08 12:33:36;;;;;;;33.72;30.38;;;;;;;;;;5093271;28;20223;-80
2021/01/08 12:36:03;;;;;;;33.30;30.35;;;;;;;;;;5093885;28;20234;-81
2021/01/08 12:38:31;;;;;;;32.72;29.63;;;;;;;;;;5094847;28;20677;-85
2021/01/08 12:40:59;;;;;;;30.58;27.92;;;;;;;;;;5093860;28;20197;-80
2021/01/08 12:43:26;;;;;;;31.25;28.85;;;;;;;;;;5099703;28;20693;-79
2021/01/08 12:45:53;;;;;;;30.30;27.90;;;;;;;;;;5099090;28;20202;-81
2021/01/08 12:48:20;;;;;;;28.23;26.02;;;;;;;;;;5096521;28;20630;-81
2021/01/08 12:50:47;;;;;;;28.08;25.77;;;;;;;;;;5094461;28;20191;-80
2021/01/08 12:53:14;;;;;;;29.20;26.90;;;;;;;;;;5094525;28;20192;-81
2021/01/08 12:55:42;;;;;;;29.23;26.83;;;;;;;;;;5093680;28;20187;-82
2021/01/08 12:58:08;;;;;;;26.90;24.80;;;;;;;;;;5094363;28;20222;-80
2021/01/08 13:00:36;;;;;;;28.52;26.30;;;;;;;;;;5095260;28;20191;-89
2021/01/08 13:03:03;;;;;;;26.58;24.50;;;;;;;;;;5094921;28;20195;-82
2021/01/08 13:05:29;;;;;;;26.73;24.63;;;;;;;;;;5094882;28;20523;-85
2021/01/08 13:07:56;;;;;;;26.73;24.42;;;;;;;;;;5094798;28;20196;-83
2021/01/08 13:10:24;;;;;;;28.02;25.73;;;;;;;;;;5093443;28;20187;-81
2021/01/08 13:12:53;;;;;;;26.85;24.75;;;;;;;;;;5094282;28;20182;-81
2021/01/08 13:15:20;;;;;;;27.98;25.77;;;;;;;;;;5094300;28;20233;-81
2021/01/08 13:17:47;;;;;;;27.48;25.38;;;;;;;;;;5093922;28;20189;-81
2021/01/08 13:20:14;;;;;;;27.00;25.00;;;;;;;;;;5092641;28;20193;-81
2021/01/08 13:22:42;;;;;;;26.77;24.67;;;;;;;;;;5092109;28;20615;-81
2021/01/08 13:25:09;;;;;;;26.88;24.88;;;;;;;;;;5093748;28;20227;-81
2021/01/08 13:27:38;;;;;;;27.75;25.65;;;;;;;;;;5093909;28;20193;-81
2021/01/08 13:30:06;;;;;;;27.15;24.95;;;;;;;;;;5094164;28;20211;-81
2021/01/08 13:32:33;;;;;;;27.30;25.05;;;;;;;;;;5094110;28;20194;-81
2021/01/08 13:35:00;;;;;;;28.02;25.80;;;;;;;;;;5094085;28;20680;-83
2021/01/08 13:37:27;;;;;;;28.10;25.83;;;;;;;;;;5094551;28;20188;-83
2021/01/08 13:39:54;;;;;;;28.42;26.02;;;;;;;;;;5093949;28;20699;-83
2021/01/08 13:42:21;;;;;;;27.73;25.38;;;;;;;;;;5094329;28;20543;-81
2021/01/08 13:44:48;;;;;;;30.13;27.73;;;;;;;;;;5092676;28;20640;-81
2021/01/08 13:47:16;;;;;;;29.50;27.00;;;;;;;;;;5097087;28;20200;-81
2021/01/08 13:49:43;;;;;;;28.67;26.23;;;;;;;;;;5096491;28;20196;-80
2021/01/08 13:52:11;;;;;;;29.48;26.92;;;;;;;;;;5097852;28;20671;-81
2021/01/08 13:54:38;;;;;;;28.50;26.10;;;;;;;;;;5097005;28;20193;-81
2021/01/08 13:57:06;;;;;;;28.30;25.95;;;;;;;;;;5096788;28;20545;-83
2021/01/08 13:59:34;;;;;;;28.42;26.13;;;;;;;;;;5098124;28;20265;-82
2021/01/08 14:02:01;;;;;;;27.83;25.42;;;;;;;;;;5097826;28;20237;-81
2021/01/08 14:04:29;;;;;;;28.10;25.90;;;;;;;;;;5097566;28;20187;-81
2021/01/08 14:06:56;;;;;;;27.48;25.30;;;;;;;;;;5097433;28;20288;-81
2021/01/08 14:09:23;;;;;;;27.27;25.08;;;;;;;;;;5097584;28;20204;-82
2021/01/08 14:11:51;;;;;;;29.45;26.90;;;;;;;;;;5098162;28;20184;-82
2021/01/08 14:14:18;;;;;;;29.38;26.92;;;;;;;;;;5096309;28;20194;-81
2021/01/08 14:16:45;;;;;;;28.42;26.02;;;;;;;;;;5096356;28;20191;-81
2021/01/08 14:19:12;;;;;;;30.05;27.50;;;;;;;;;;5097454;28;20316;-81
2021/01/08 14:21:41;;;;;;;28.77;26.13;;;;;;;;;;5097196;28;20204;-81